Time;durP1;ratioP1;P1;durP2;ratioP2;P2;SDS_P1;SDS_P2;PMS_P1;PMS_P2;Temp;Humidity;BMP_temperature;BMP_pressure;BME280_temperature;BME280_humidity;BME280_pressure;Samples;Min_cycle;Max_cycle;Signal;HPM_P1;HPM_P2
2022/04/14 00:02:21;;;;;;;;;;;10.40;99.90;;;;;;5064292;28;19986;-74
2022/04/14 00:04:47;;;;;;;;;;;10.40;99.90;;;;;;5063639;28;20196;-72
2022/04/14 00:07:12;;;;;;;;;;;10.40;99.90;;;;;;5063842;28;20578;-72
2022/04/14 00:09:38;;;;;;;;;;;10.30;99.90;;;;;;5063822;28;19916;-72
2022/04/14 00:12:03;;;;;;;;;;;10.40;99.90;;;;;;5081454;28;20230;-72
2022/04/14 00:14:29;;;;;;;;;;;10.40;99.90;;;;;;5047202;28;20006;-72
2022/04/14 00:16:54;;;;;;;;;;;10.40;99.90;;;;;;5081169;28;19966;-72
2022/04/14 00:19:20;;;;;;;;;;;10.30;99.90;;;;;;5081586;28;19920;-73
2022/04/14 00:21:46;;;;;;;;;;;10.30;99.90;;;;;;5081600;28;19949;-72
2022/04/14 00:24:11;;;;;;;;;;;10.20;99.90;;;;;;5081486;28;19934;-71
2022/04/14 00:26:37;;;;;;;;;;;10.20;99.90;;;;;;5075163;28;20007;-72
2022/04/14 00:29:02;;;;;;;;;;;10.20;99.90;;;;;;5081900;28;19961;-72
2022/04/14 00:31:28;;;;;;;;;;;10.10;99.90;;;;;;5081650;28;19970;-72
2022/04/14 00:33:53;;;;;;;;;;;10.10;99.90;;;;;;5079455;28;19920;-72
2022/04/14 00:36:19;;;;;;;;;;;10.10;99.90;;;;;;5081393;28;19912;-79
2022/04/14 00:38:45;;;;;;;;;;;10.20;99.90;;;;;;5081462;28;19997;-72
2022/04/14 00:41:10;;;;;;;;;;;10.20;99.90;;;;;;5080563;28;20289;-72
2022/04/14 00:43:38;;;;;;;;;;;10.10;99.90;;;;;;5081046;28;19912;-72
2022/04/14 00:46:04;;;;;;;;;;;10.10;99.90;;;;;;5063543;28;19958;-72
2022/04/14 00:48:30;;;;;;;;;;;10.00;99.90;;;;;;5081360;28;19920;-72
2022/04/14 00:50:56;;;;;;;;;;;10.00;99.90;;;;;;5082011;28;19908;-72
2022/04/14 00:53:22;;;;;;;;;;;10.00;99.90;;;;;;5081194;28;20345;-72
2022/04/14 00:55:50;;;;;;;;;;;10.00;99.90;;;;;;5080855;28;21231;-72
2022/04/14 00:58:16;;;;;;;;;;;9.90;99.90;;;;;;5080399;28;19916;-72
2022/04/14 01:00:41;;;;;;;;;;;9.90;99.90;;;;;;5079357;28;20007;-72
2022/04/14 01:03:08;;;;;;;;;;;9.80;99.90;;;;;;5062441;28;20000;-73
2022/04/14 01:05:33;;;;;;;;;;;9.80;99.90;;;;;;5074673;28;19999;-72
2022/04/14 01:07:59;;;;;;;;;;;9.70;99.90;;;;;;5058455;28;20012;-72
2022/04/14 01:10:26;;;;;;;;;;;9.70;99.90;;;;;;5075508;28;19924;-72
2022/04/14 01:12:52;;;;;;;;;;;9.70;99.90;;;;;;5075526;28;19962;-72
2022/04/14 01:15:17;;;;;;;;;;;9.70;99.90;;;;;;5059567;28;20007;-72
2022/04/14 01:17:43;;;;;;;;;;;9.60;99.90;;;;;;5076755;28;20015;-72
2022/04/14 01:20:11;;;;;;;;;;;9.70;99.90;;;;;;5076140;28;19913;-78
2022/04/14 01:22:45;;;;;;;;;;;9.60;99.90;;;;;;5076293;28;20188;-72
2022/04/14 01:25:11;;;;;;;;;;;9.60;99.90;;;;;;5075559;28;20315;-72
2022/04/14 01:27:36;;;;;;;;;;;9.60;99.90;;;;;;5075742;28;19946;-73
2022/04/14 01:30:02;;;;;;;;;;;9.60;99.90;;;;;;5076684;28;19921;-72
2022/04/14 01:32:28;;;;;;;;;;;9.50;99.90;;;;;;5076814;28;19966;-72
2022/04/14 01:34:54;;;;;;;;;;;9.50;99.90;;;;;;5076672;28;19916;-72
2022/04/14 01:37:19;;;;;;;;;;;9.40;99.90;;;;;;5077062;28;20260;-72
2022/04/14 01:39:45;;;;;;;;;;;9.40;99.90;;;;;;5077002;28;20018;-72
2022/04/14 01:42:10;;;;;;;;;;;9.30;99.90;;;;;;5074097;28;19924;-72
2022/04/14 01:44:36;;;;;;;;;;;9.30;99.90;;;;;;5075955;28;19917;-79
2022/04/14 01:47:02;;;;;;;;;;;9.30;99.90;;;;;;5076598;28;19917;-73
2022/04/14 01:49:27;;;;;;;;;;;9.20;99.90;;;;;;5075900;28;19912;-73
2022/04/14 01:51:53;;;;;;;;;;;9.20;99.90;;;;;;5076405;28;19966;-72
2022/04/14 01:54:19;;;;;;;;;;;9.10;99.90;;;;;;5075953;28;19919;-73
2022/04/14 01:56:46;;;;;;;;;;;9.10;99.90;;;;;;5076511;28;19926;-72
2022/04/14 01:59:11;;;;;;;;;;;9.10;99.90;;;;;;5075897;28;20318;-73
2022/04/14 02:01:37;;;;;;;;;;;9.10;99.90;;;;;;5056830;28;19920;-73
2022/04/14 02:04:03;;;;;;;;;;;9.10;99.90;;;;;;5075921;28;19920;-72
2022/04/14 02:06:29;;;;;;;;;;;9.00;99.90;;;;;;5074929;28;19916;-72
2022/04/14 02:08:55;;;;;;;;;;;9.00;99.90;;;;;;5056942;28;19918;-81
2022/04/14 02:11:22;;;;;;;;;;;8.90;99.90;;;;;;5074750;28;19924;-73
2022/04/14 02:13:47;;;;;;;;;;;8.90;99.90;;;;;;5075763;28;19983;-72
2022/04/14 02:16:13;;;;;;;;;;;8.80;99.90;;;;;;5075942;28;20219;-72
2022/04/14 02:18:38;;;;;;;;;;;8.80;99.90;;;;;;5058158;28;20023;-72
2022/04/14 02:21:04;;;;;;;;;;;8.80;99.90;;;;;;5076705;28;20007;-72
2022/04/14 02:23:29;;;;;;;;;;;8.70;99.90;;;;;;5076700;28;20218;-73
2022/04/14 02:25:55;;;;;;;;;;;8.70;99.90;;;;;;5044535;28;19958;-72
2022/04/14 02:28:21;;;;;;;;;;;8.70;99.90;;;;;;5076214;28;19958;-72
2022/04/14 02:30:47;;;;;;;;;;;8.70;99.90;;;;;;5076994;28;19912;-72
2022/04/14 02:33:13;;;;;;;;;;;8.80;99.90;;;;;;5076324;28;19923;-73
2022/04/14 02:35:38;;;;;;;;;;;8.80;99.90;;;;;;5076540;28;20300;-73
2022/04/14 02:38:04;;;;;;;;;;;8.80;99.90;;;;;;5075273;28;20007;-72
2022/04/14 02:40:29;;;;;;;;;;;8.70;99.90;;;;;;5064113;28;20045;-73
2022/04/14 02:42:56;;;;;;;;;;;8.60;99.90;;;;;;5075861;28;19913;-73
2022/04/14 02:45:22;;;;;;;;;;;8.60;99.90;;;;;;5076263;28;19917;-73
2022/04/14 02:47:48;;;;;;;;;;;8.50;99.90;;;;;;5074495;28;20422;-73
2022/04/14 02:50:14;;;;;;;;;;;8.40;99.90;;;;;;5075947;28;19999;-72
2022/04/14 02:52:39;;;;;;;;;;;8.40;99.90;;;;;;5058027;28;19913;-76
2022/04/14 02:55:05;;;;;;;;;;;8.40;99.90;;;;;;5075724;28;19913;-73
2022/04/14 02:57:30;;;;;;;;;;;8.30;99.90;;;;;;5073395;28;19968;-73
2022/04/14 02:59:59;;;;;;;;;;;8.30;99.90;;;;;;5074097;28;19920;-73
2022/04/14 03:02:25;;;;;;;;;;;8.20;99.90;;;;;;5073824;28;19916;-73
2022/04/14 03:04:51;;;;;;;;;;;8.20;99.90;;;;;;5074345;28;19927;-73
2022/04/14 03:07:17;;;;;;;;;;;8.10;99.90;;;;;;5072704;28;20026;-73
2022/04/14 03:09:42;;;;;;;;;;;8.20;99.90;;;;;;5053714;28;20023;-72
2022/04/14 03:12:08;;;;;;;;;;;8.20;99.90;;;;;;5074212;28;19916;-73
2022/04/14 03:14:34;;;;;;;;;;;8.20;99.90;;;;;;5055737;28;19920;-72
2022/04/14 03:16:59;;;;;;;;;;;8.10;99.90;;;;;;5056450;28;19924;-72
2022/04/14 03:19:25;;;;;;;;;;;8.10;99.90;;;;;;5074231;28;19913;-72
2022/04/14 03:21:51;;;;;;;;;;;8.00;99.90;;;;;;5074383;28;19923;-72
2022/04/14 03:24:16;;;;;;;;;;;8.10;99.90;;;;;;5074316;28;19991;-73
2022/04/14 03:26:42;;;;;;;;;;;8.10;99.90;;;;;;5073939;28;20012;-73
2022/04/14 03:29:08;;;;;;;;;;;8.10;99.90;;;;;;5073296;28;19966;-72
2022/04/14 03:31:33;;;;;;;;;;;8.10;99.90;;;;;;5074238;28;19928;-73
2022/04/14 03:33:59;;;;;;;;;;;8.10;99.90;;;;;;5071811;28;20012;-72
2022/04/14 03:36:24;;;;;;;;;;;8.10;99.90;;;;;;5073694;28;20003;-73
2022/04/14 03:38:50;;;;;;;;;;;8.20;99.90;;;;;;5074149;28;19912;-73
2022/04/14 03:41:15;;;;;;;;;;;8.20;99.90;;;;;;5073888;28;19967;-73
2022/04/14 03:43:41;;;;;;;;;;;8.20;99.90;;;;;;5072740;28;19923;-73
2022/04/14 03:46:06;;;;;;;;;;;8.20;99.90;;;;;;5074119;28;19921;-73
2022/04/14 03:48:32;;;;;;;;;;;8.20;99.90;;;;;;5074128;28;20279;-73
2022/04/14 03:50:58;;;;;;;;;;;8.10;99.90;;;;;;5074704;28;19947;-72
2022/04/14 03:53:24;;;;;;;;;;;8.10;99.90;;;;;;5072286;28;20007;-73
2022/04/14 03:55:50;;;;;;;;;;;8.10;99.90;;;;;;5072763;28;19959;-73
2022/04/14 03:58:15;;;;;;;;;;;8.00;99.90;;;;;;5074778;28;20241;-73
2022/04/14 04:00:41;;;;;;;;;;;8.00;99.90;;;;;;5074887;28;19961;-73
2022/04/14 04:03:11;;;;;;;;;;;8.00;99.90;;;;;;5074320;28;19995;-73
2022/04/14 04:05:37;;;;;;;;;;;8.00;99.90;;;;;;5061787;28;19913;-72
2022/04/14 04:08:04;;;;;;;;;;;7.90;99.90;;;;;;5074681;28;19927;-72
2022/04/14 04:10:29;;;;;;;;;;;7.90;99.90;;;;;;5074957;28;20018;-72
2022/04/14 04:12:55;;;;;;;;;;;7.80;99.90;;;;;;5075133;28;20325;-73
2022/04/14 04:15:20;;;;;;;;;;;7.70;99.90;;;;;;5057141;28;20012;-72
2022/04/14 04:17:46;;;;;;;;;;;7.80;99.90;;;;;;5064149;28;19936;-72
2022/04/14 04:20:12;;;;;;;;;;;7.70;99.90;;;;;;5061248;28;19909;-73
2022/04/14 04:22:38;;;;;;;;;;;7.80;99.90;;;;;;5075482;28;19913;-72
2022/04/14 04:25:03;;;;;;;;;;;7.80;99.90;;;;;;5055477;28;19925;-73
2022/04/14 04:27:29;;;;;;;;;;;7.90;99.90;;;;;;5040893;28;20216;-72
2022/04/14 04:29:55;;;;;;;;;;;7.80;99.90;;;;;;5074835;28;19908;-72
2022/04/14 04:32:20;;;;;;;;;;;7.70;99.90;;;;;;5051341;28;19921;-72
2022/04/14 04:34:46;;;;;;;;;;;7.70;99.90;;;;;;5050987;28;19919;-72
2022/04/14 04:37:11;;;;;;;;;;;7.70;99.90;;;;;;5055844;28;20330;-72
2022/04/14 04:39:37;;;;;;;;;;;7.70;99.90;;;;;;5073658;28;20303;-72
2022/04/14 04:42:02;;;;;;;;;;;7.60;99.90;;;;;;5059804;28;20007;-72
2022/04/14 04:44:28;;;;;;;;;;;7.70;99.90;;;;;;5072407;28;19932;-72
2022/04/14 04:46:54;;;;;;;;;;;7.70;99.90;;;;;;5077367;28;19916;-73
2022/04/14 04:49:19;;;;;;;;;;;7.70;99.90;;;;;;5059850;28;19939;-73
2022/04/14 04:51:45;;;;;;;;;;;7.70;99.90;;;;;;5077513;28;19908;-72
2022/04/14 04:54:10;;;;;;;;;;;7.70;99.90;;;;;;5076911;28;19916;-72
2022/04/14 04:56:36;;;;;;;;;;;7.70;99.90;;;;;;5077669;28;20325;-73
2022/04/14 04:59:02;;;;;;;;;;;7.70;99.90;;;;;;5076796;28;19912;-72
2022/04/14 05:01:27;;;;;;;;;;;7.60;99.90;;;;;;5074253;28;20410;-72
2022/04/14 05:03:53;;;;;;;;;;;7.60;99.90;;;;;;5073002;28;19917;-73
2022/04/14 05:06:19;;;;;;;;;;;7.60;99.90;;;;;;5072022;28;19966;-73
2022/04/14 05:08:46;;;;;;;;;;;7.70;99.90;;;;;;5074477;28;19969;-72
2022/04/14 05:11:12;;;;;;;;;;;7.70;99.90;;;;;;5073719;28;19928;-72
2022/04/14 05:13:38;;;;;;;;;;;7.80;99.90;;;;;;5074249;28;20357;-72
2022/04/14 05:16:06;;;;;;;;;;;7.80;99.90;;;;;;5076998;28;19954;-73
2022/04/14 05:18:32;;;;;;;;;;;8.00;99.90;;;;;;5078000;28;20291;-72
2022/04/14 05:20:57;;;;;;;;;;;8.10;99.90;;;;;;5078203;28;19913;-73
2022/04/14 05:23:23;;;;;;;;;;;8.20;99.90;;;;;;5077414;28;19916;-72
2022/04/14 05:25:49;;;;;;;;;;;8.40;99.90;;;;;;5060107;28;19908;-72
2022/04/14 05:28:14;;;;;;;;;;;8.50;99.90;;;;;;5060059;28;19921;-72
2022/04/14 05:30:40;;;;;;;;;;;8.70;99.90;;;;;;5077705;28;19913;-73
2022/04/14 05:33:10;;;;;;;;;;;8.90;99.90;;;;;;5077491;28;19919;-73
2022/04/14 05:35:37;;;;;;;;;;;9.00;99.90;;;;;;5077952;28;19909;-72
2022/04/14 05:38:03;;;;;;;;;;;9.10;99.90;;;;;;5077818;28;19908;-73
2022/04/14 05:40:28;;;;;;;;;;;9.20;99.90;;;;;;5077527;28;20324;-72
2022/04/14 05:42:54;;;;;;;;;;;9.30;99.90;;;;;;5077120;28;20281;-72
2022/04/14 05:45:20;;;;;;;;;;;9.40;99.90;;;;;;5076693;28;19919;-73
2022/04/14 05:47:46;;;;;;;;;;;9.50;99.90;;;;;;5077542;28;19966;-72
2022/04/14 05:50:12;;;;;;;;;;;9.60;99.90;;;;;;5076963;28;19921;-72
2022/04/14 05:52:38;;;;;;;;;;;9.70;99.90;;;;;;5077106;28;19913;-72
2022/04/14 05:55:04;;;;;;;;;;;9.90;99.90;;;;;;5077468;28;19916;-73
2022/04/14 05:57:29;;;;;;;;;;;9.90;99.90;;;;;;5076848;28;19995;-74
2022/04/14 05:59:55;;;;;;;;;;;10.00;99.90;;;;;;5059709;28;20000;-73
2022/04/14 06:02:21;;;;;;;;;;;10.10;99.90;;;;;;5077216;28;20274;-73
2022/04/14 06:04:46;;;;;;;;;;;10.20;99.90;;;;;;5076173;28;19995;-77
2022/04/14 06:07:12;;;;;;;;;;;10.30;99.90;;;;;;5065502;28;19925;-73
2022/04/14 06:09:37;;;;;;;;;;;10.40;99.90;;;;;;5056950;28;19917;-73
2022/04/14 06:12:03;;;;;;;;;;;10.40;99.90;;;;;;5066754;28;19923;-72
2022/04/14 06:14:30;;;;;;;;;;;10.50;99.90;;;;;;5076858;28;19919;-73
2022/04/14 06:16:56;;;;;;;;;;;10.50;99.90;;;;;;5070521;28;19912;-73
2022/04/14 06:19:21;;;;;;;;;;;10.60;99.90;;;;;;5072500;28;20055;-73
2022/04/14 06:21:47;;;;;;;;;;;10.60;99.90;;;;;;5054412;28;19947;-76
2022/04/14 06:24:12;;;;;;;;;;;10.70;99.90;;;;;;5073376;28;19952;-73
2022/04/14 06:26:38;;;;;;;;;;;10.70;99.90;;;;;;5074037;28;19913;-72
2022/04/14 06:29:04;;;;;;;;;;;10.70;99.90;;;;;;5073117;28;19918;-73
2022/04/14 06:31:30;;;;;;;;;;;10.80;99.90;;;;;;5056551;28;19948;-77
2022/04/14 06:33:55;;;;;;;;;;;10.80;99.90;;;;;;5073511;28;20008;-73
2022/04/14 06:36:21;;;;;;;;;;;10.80;99.90;;;;;;5074129;28;19951;-73
2022/04/14 06:38:46;;;;;;;;;;;10.90;99.90;;;;;;5055560;28;19921;-73
2022/04/14 06:41:12;;;;;;;;;;;11.00;99.90;;;;;;5074033;28;20348;-73
2022/04/14 06:43:37;;;;;;;;;;;11.10;99.90;;;;;;5074531;28;19916;-73
2022/04/14 06:46:03;;;;;;;;;;;11.20;99.90;;;;;;5075701;28;20279;-73
2022/04/14 06:48:32;;;;;;;;;;;11.30;99.90;;;;;;5075114;28;19920;-78
2022/04/14 06:50:58;;;;;;;;;;;11.40;99.90;;;;;;5074825;28;19948;-73
2022/04/14 06:53:23;;;;;;;;;;;11.50;99.90;;;;;;5075229;28;19924;-73
2022/04/14 06:55:49;;;;;;;;;;;11.70;99.90;;;;;;5073182;28;19924;-73
2022/04/14 06:58:15;;;;;;;;;;;11.80;99.90;;;;;;5075172;28;19966;-73
2022/04/14 07:00:40;;;;;;;;;;;12.00;99.90;;;;;;5055479;28;19920;-73
2022/04/14 07:03:06;;;;;;;;;;;12.10;99.90;;;;;;5054115;28;19956;-73
2022/04/14 07:05:32;;;;;;;;;;;12.30;99.90;;;;;;5074108;28;20303;-73
2022/04/14 07:07:57;;;;;;;;;;;12.30;99.90;;;;;;5074874;28;19942;-79
2022/04/14 07:10:23;;;;;;;;;;;12.30;99.90;;;;;;5071965;28;20034;-73
2022/04/14 07:12:49;;;;;;;;;;;12.30;99.90;;;;;;5042011;28;19982;-73
2022/04/14 07:15:14;;;;;;;;;;;12.40;99.90;;;;;;5075430;28;20298;-73
2022/04/14 07:17:40;;;;;;;;;;;12.50;99.90;;;;;;5056530;28;19919;-78
2022/04/14 07:20:09;;;;;;;;;;;12.60;99.90;;;;;;5056113;28;19913;-73
2022/04/14 07:22:46;;;;;;;;;;;12.70;99.90;;;;;;5073172;28;19969;-73
2022/04/14 07:25:12;;;;;;;;;;;12.80;99.90;;;;;;5073234;28;19923;-73
2022/04/14 07:27:37;;;;;;;;;;;12.70;99.90;;;;;;5072962;28;19917;-73
2022/04/14 07:30:03;;;;;;;;;;;12.70;99.90;;;;;;5072753;28;20070;-73
2022/04/14 07:32:36;;;;;;;;;;;12.80;99.90;;;;;;5055148;28;19963;-73
2022/04/14 07:35:03;;;;;;;;;;;13.50;99.90;;;;;;5056517;28;19917;-73
2022/04/14 07:37:29;;;;;;;;;;;14.00;99.90;;;;;;5073373;28;19920;-73
2022/04/14 07:39:55;;;;;;;;;;;14.60;99.90;;;;;;5074559;28;19974;-74
2022/04/14 07:42:21;;;;;;;;;;;15.40;99.90;;;;;;5072946;28;19923;-74
2022/04/14 07:44:46;;;;;;;;;;;16.10;99.90;;;;;;5075599;28;19917;-73
2022/04/14 07:47:12;;;;;;;;;;;16.80;99.90;;;;;;5072927;28;19971;-73
2022/04/14 07:49:37;;;;;;;;;;;17.10;99.90;;;;;;5072344;28;19952;-79
2022/04/14 07:52:03;;;;;;;;;;;17.40;99.90;;;;;;5070337;28;19927;-74
2022/04/14 07:54:29;;;;;;;;;;;17.70;99.90;;;;;;5071423;28;19916;-74
2022/04/14 07:56:56;;;;;;;;;;;18.00;99.90;;;;;;5055682;28;19956;-74
2022/04/14 07:59:21;;;;;;;;;;;18.40;99.90;;;;;;5074536;28;19916;-75
2022/04/14 08:01:47;;;;;;;;;;;18.50;99.90;;;;;;5072678;28;19917;-73
2022/04/14 08:04:13;;;;;;;;;;;18.70;99.90;;;;;;5071428;28;19916;-74
2022/04/14 08:06:38;;;;;;;;;;;18.90;99.90;;;;;;5069914;28;19913;-79
2022/04/14 08:09:06;;;;;;;;;;;19.00;99.90;;;;;;5071217;28;20208;-74
2022/04/14 08:11:32;;;;;;;;;;;18.80;99.90;;;;;;5071402;28;19924;-73
2022/04/14 08:13:58;;;;;;;;;;;19.10;99.90;;;;;;5072311;28;20193;-74
2022/04/14 08:16:23;;;;;;;;;;;19.20;99.90;;;;;;5076571;28;19920;-73
2022/04/14 08:18:49;;;;;;;;;;;19.40;99.90;;;;;;5077024;28;19917;-74
2022/04/14 08:21:14;;;;;;;;;;;19.60;99.90;;;;;;5059143;28;19987;-73
2022/04/14 08:23:40;;;;;;;;;;;20.00;99.90;;;;;;5074438;28;20009;-78
2022/04/14 08:26:08;;;;;;;;;;;19.90;99.90;;;;;;5073197;28;20483;-73
2022/04/14 08:28:34;;;;;;;;;;;19.70;99.90;;;;;;5075254;28;20326;-74
2022/04/14 08:31:00;;;;;;;;;;;19.40;99.90;;;;;;5075684;28;19913;-74
2022/04/14 08:33:26;;;;;;;;;;;19.70;99.90;;;;;;5073333;28;20307;-74
2022/04/14 08:35:53;;;;;;;;;;;19.70;99.90;;;;;;5074247;28;20009;-74
2022/04/14 08:38:18;;;;;;;;;;;20.00;99.90;;;;;;5073065;28;20054;-73
2022/04/14 08:40:46;;;;;;;;;;;19.90;99.90;;;;;;5077340;28;20003;-77
2022/04/14 08:43:16;;;;;;;;;;;19.40;99.90;;;;;;5077472;28;19954;-74
2022/04/14 08:45:46;;;;;;;;;;;19.50;99.90;;;;;;5058890;28;19950;-74
2022/04/14 08:48:15;;;;;;;;;;;19.50;99.90;;;;;;5077778;28;19927;-74
2022/04/14 08:50:42;;;;;;;;;;;19.70;99.90;;;;;;5060542;28;19995;-78
2022/04/14 08:53:08;;;;;;;;;;;20.20;99.90;;;;;;5078003;28;20257;-73
2022/04/14 08:55:34;;;;;;;;;;;20.30;99.90;;;;;;5076673;28;19913;-74
2022/04/14 08:57:59;;;;;;;;;;;20.00;99.90;;;;;;5074863;28;19919;-74
2022/04/14 09:00:26;;;;;;;;;;;19.90;99.90;;;;;;5059875;28;19908;-74
2022/04/14 09:02:53;;;;;;;;;;;19.80;99.90;;;;;;5074168;28;20315;-74
2022/04/14 09:05:18;;;;;;;;;;;19.80;99.90;;;;;;5075839;28;20015;-74
2022/04/14 09:07:51;;;;;;;;;;;19.90;99.90;;;;;;5060262;28;20275;-73
2022/04/14 09:10:17;;;;;;;;;;;19.90;99.90;;;;;;5063587;28;19925;-74
2022/04/14 09:12:43;;;;;;;;;;;20.10;99.90;;;;;;5073478;28;20420;-74
2022/04/14 09:15:09;;;;;;;;;;;20.10;99.90;;;;;;5060309;28;19991;-74
2022/04/14 09:17:35;;;;;;;;;;;19.90;99.90;;;;;;5040419;28;19908;-74
2022/04/14 09:20:20;;;;;;;;;;;20.00;99.90;;;;;;5058303;28;19920;-74
2022/04/14 09:23:06;;;;;;;;;;;20.00;99.90;;;;;;5059260;28;19913;-73
2022/04/14 09:25:31;;;;;;;;;;;20.10;99.90;;;;;;5068304;28;19962;-73
2022/04/14 09:28:07;;;;;;;;;;;20.20;99.90;;;;;;5073466;28;20014;-74
2022/04/14 09:30:32;;;;;;;;;;;20.20;99.90;;;;;;5054855;28;19917;-74
2022/04/14 09:32:58;;;;;;;;;;;20.30;99.90;;;;;;5069923;28;19928;-73
2022/04/14 09:35:25;;;;;;;;;;;20.70;99.90;;;;;;5077416;28;19909;-74
2022/04/14 09:38:03;;;;;;;;;;;20.70;99.90;;;;;;5077485;28;19916;-74
2022/04/14 09:40:29;;;;;;;;;;;20.70;99.90;;;;;;5077320;28;19928;-73
2022/04/14 09:42:55;;;;;;;;;;;20.80;99.90;;;;;;5076363;28;19921;-74
2022/04/14 09:45:25;;;;;;;;;;;20.80;99.90;;;;;;5071419;28;20014;-73
2022/04/14 09:47:52;;;;;;;;;;;21.20;99.90;;;;;;5057041;28;19916;-73
2022/04/14 09:50:27;;;;;;;;;;;21.40;99.90;;;;;;5038804;28;19916;-78
2022/04/14 09:52:56;;;;;;;;;;;21.70;99.90;;;;;;5073723;28;20326;-73
2022/04/14 09:55:22;;;;;;;;;;;21.50;99.90;;;;;;5076087;28;19916;-73
2022/04/14 09:58:05;;;;;;;;;;;21.70;99.90;;;;;;5076364;28;19938;-73
2022/04/14 10:00:37;;;;;;;;;;;22.00;99.90;;;;;;5076272;28;19916;-74
2022/04/14 10:03:06;;;;;;;;;;;22.10;99.90;;;;;;5075672;28;20223;-74
2022/04/14 10:05:35;;;;;;;;;;;21.90;99.90;;;;;;5057626;28;20231;-73
2022/04/14 10:08:01;;;;;;;;;;;21.90;99.90;;;;;;5075232;28;19922;-74
2022/04/14 10:10:26;;;;;;;;;;;22.00;99.90;;;;;;5076466;28;19925;-74
2022/04/14 10:13:05;;;;;;;;;;;22.20;99.90;;;;;;5056117;28;20626;-73
2022/04/14 10:15:38;;;;;;;;;;;22.30;99.90;;;;;;5069963;28;20222;-73
2022/04/14 10:18:09;;;;;;;;;;;22.50;99.90;;;;;;5071540;28;19908;-74
2022/04/14 10:20:35;;;;;;;;;;;22.10;99.90;;;;;;5074001;28;19913;-73
2022/04/14 10:23:01;;;;;;;;;;;22.10;99.90;;;;;;5055026;28;19952;-73
2022/04/14 10:25:27;;;;;;;;;;;21.10;99.90;;;;;;5075623;28;19990;-78
2022/04/14 10:27:54;;;;;;;;;;;20.20;99.90;;;;;;5073594;28;19916;-73
2022/04/14 10:30:20;;;;;;;;;;;19.70;99.90;;;;;;5075772;28;19939;-72
2022/04/14 10:32:46;;;;;;;;;;;19.40;99.90;;;;;;5072822;28;19923;-73
2022/04/14 10:35:12;;;;;;;;;;;19.20;99.90;;;;;;5074311;28;20438;-73
2022/04/14 10:37:42;;;;;;;;;;;19.00;99.90;;;;;;5074674;28;19920;-72
2022/04/14 10:40:08;;;;;;;;;;;18.70;99.90;;;;;;5066599;28;19919;-72
2022/04/14 10:42:34;;;;;;;;;;;18.90;99.90;;;;;;5071279;28;19916;-73
2022/04/14 10:45:13;;;;;;;;;;;18.50;99.90;;;;;;5074547;28;20325;-73
2022/04/14 10:47:51;;;;;;;;;;;18.30;99.90;;;;;;5071841;28;19916;-72
2022/04/14 10:50:20;;;;;;;;;;;18.20;99.90;;;;;;5075095;28;20286;-73
2022/04/14 10:53:02;;;;;;;;;;;18.40;99.90;;;;;;5069073;28;20311;-72
2022/04/14 10:55:38;;;;;;;;;;;18.70;99.90;;;;;;5069321;28;19916;-73
2022/04/14 10:58:04;;;;;;;;;;;19.20;99.90;;;;;;5055800;28;19912;-73
2022/04/14 11:00:34;;;;;;;;;;;19.40;99.90;;;;;;5074873;28;20003;-73
2022/04/14 11:03:04;;;;;;;;;;;19.60;99.90;;;;;;5056081;28;20014;-73
2022/04/14 11:05:49;;;;;;;;;;;20.10;99.90;;;;;;5055678;28;19920;-73
2022/04/14 11:08:29;;;;;;;;;;;20.40;99.90;;;;;;5073185;28;19917;-78
2022/04/14 11:10:55;;;;;;;;;;;20.70;99.90;;;;;;5071501;28;19924;-73
2022/04/14 11:13:21;;;;;;;;;;;20.90;99.90;;;;;;5073642;28;20006;-72
2022/04/14 11:15:46;;;;;;;;;;;20.40;99.90;;;;;;5073630;28;20004;-79
2022/04/14 11:18:12;;;;;;;;;;;19.90;99.90;;;;;;5075062;28;19921;-72
2022/04/14 11:20:37;;;;;;;;;;;19.80;99.90;;;;;;5074527;28;20013;-78
2022/04/14 11:23:06;;;;;;;;;;;19.60;99.90;;;;;;5075468;28;19912;-71
2022/04/14 11:25:41;;;;;;;;;;;19.60;99.90;;;;;;5074793;28;19916;-73
2022/04/14 11:28:25;;;;;;;;;;;19.50;99.90;;;;;;5072589;28;19966;-72
2022/04/14 11:30:52;;;;;;;;;;;19.20;99.90;;;;;;5073868;28;20235;-73
2022/04/14 11:33:22;;;;;;;;;;;19.30;99.90;;;;;;5058347;28;20050;-73
2022/04/14 11:35:48;;;;;;;;;;;19.80;99.90;;;;;;5073662;28;20307;-78
2022/04/14 11:38:32;;;;;;;;;;;20.50;99.90;;;;;;5056719;28;19913;-73
2022/04/14 11:40:58;;;;;;;;;;;21.00;99.90;;;;;;5073761;28;19917;-73
2022/04/14 11:43:23;;;;;;;;;;;21.50;99.90;;;;;;5057539;28;20307;-73
2022/04/14 11:45:50;;;;;;;;;;;20.80;99.90;;;;;;5072570;28;19913;-73
2022/04/14 11:48:15;;;;;;;;;;;20.40;99.90;;;;;;5073817;28;19916;-72
2022/04/14 11:50:41;;;;;;;;;;;19.60;99.90;;;;;;5074520;28;19938;-76
2022/04/14 11:53:07;;;;;;;;;;;18.80;99.90;;;;;;5072887;28;19919;-72
2022/04/14 11:55:33;;;;;;;;;;;18.40;99.90;;;;;;5057084;28;19924;-73
2022/04/14 11:57:58;;;;;;;;;;;18.10;99.90;;;;;;5057560;28;19924;-73
2022/04/14 12:00:24;;;;;;;;;;;18.10;99.90;;;;;;5072797;28;19913;-73
2022/04/14 12:02:52;;;;;;;;;;;18.10;99.90;;;;;;5072226;28;20311;-73
2022/04/14 12:05:18;;;;;;;;;;;18.30;99.90;;;;;;5073299;28;19931;-72
2022/04/14 12:07:44;;;;;;;;;;;18.30;99.90;;;;;;5073788;28;19917;-71
2022/04/14 12:10:09;;;;;;;;;;;17.70;99.90;;;;;;5073915;28;19920;-71
2022/04/14 12:12:37;;;;;;;;;;;17.30;99.90;;;;;;5073984;28;20291;-72
2022/04/14 12:15:03;;;;;;;;;;;17.30;99.90;;;;;;5076284;28;20218;-72
2022/04/14 12:17:30;;;;;;;;;;;17.10;99.90;;;;;;5073735;28;19931;-73
2022/04/14 12:19:57;;;;;;;;;;;17.20;99.90;;;;;;5072520;28;19957;-72
2022/04/14 12:22:24;;;;;;;;;;;17.10;99.90;;;;;;5074711;28;19955;-72
2022/04/14 12:25:24;;;;;;;;;;;17.10;99.90;;;;;;5075312;28;19913;-78
2022/04/14 12:27:50;;;;;;;;;;;17.30;99.90;;;;;;5074879;28;20019;-72
2022/04/14 12:30:15;;;;;;;;;;;17.80;99.90;;;;;;5074529;28;20000;-72
2022/04/14 12:32:44;;;;;;;;;;;18.10;99.90;;;;;;5075151;28;19917;-72
2022/04/14 12:35:11;;;;;;;;;;;18.10;99.90;;;;;;5074955;28;19944;-72
2022/04/14 12:37:40;;;;;;;;;;;18.20;99.90;;;;;;5080031;28;19959;-72
2022/04/14 12:40:13;;;;;;;;;;;18.30;99.90;;;;;;5077474;28;19912;-72
2022/04/14 12:42:39;;;;;;;;;;;18.40;99.90;;;;;;5057843;28;20007;-72
2022/04/14 12:45:12;;;;;;;;;;;18.30;99.90;;;;;;5074962;28;19919;-75
2022/04/14 12:47:45;;;;;;;;;;;18.40;99.90;;;;;;5075832;28;20008;-73
2022/04/14 12:50:11;;;;;;;;;;;18.50;99.90;;;;;;5045698;28;20231;-72
2022/04/14 12:52:37;;;;;;;;;;;18.50;99.90;;;;;;5074773;28;19912;-72
2022/04/14 12:55:03;;;;;;;;;;;18.40;99.90;;;;;;5074582;28;20406;-72
2022/04/14 12:57:31;;;;;;;;;;;18.40;99.90;;;;;;5074132;28;20374;-78
2022/04/14 13:00:10;;;;;;;;;;;18.10;99.90;;;;;;5075784;28;19912;-72
2022/04/14 13:02:37;;;;;;;;;;;17.90;99.90;;;;;;5078269;28;20311;-72
2022/04/14 13:05:13;;;;;;;;;;;18.10;99.90;;;;;;5078252;28;19932;-72
2022/04/14 13:07:51;;;;;;;;;;;17.70;99.90;;;;;;5077672;28;19959;-72
2022/04/14 13:10:29;;;;;;;;;;;17.50;99.90;;;;;;5064435;28;19924;-81
2022/04/14 13:12:56;;;;;;;;;;;18.00;99.90;;;;;;5060280;28;19916;-72
2022/04/14 13:15:22;;;;;;;;;;;17.90;99.90;;;;;;5077940;28;20012;-71
2022/04/14 13:17:47;;;;;;;;;;;17.60;99.90;;;;;;5074573;28;19917;-71
2022/04/14 13:20:24;;;;;;;;;;;17.50;99.90;;;;;;5046415;28;19942;-72
2022/04/14 13:22:53;;;;;;;;;;;17.70;99.90;;;;;;5077717;28;19912;-72
2022/04/14 13:25:19;;;;;;;;;;;17.70;99.90;;;;;;5060036;28;19999;-72
2022/04/14 13:27:44;;;;;;;;;;;17.60;99.90;;;;;;5077791;28;20276;-72
2022/04/14 13:30:10;;;;;;;;;;;17.60;99.90;;;;;;5077799;28;20248;-73
2022/04/14 13:32:36;;;;;;;;;;;17.40;99.90;;;;;;5060113;28;20295;-72
2022/04/14 13:35:02;;;;;;;;;;;17.50;99.90;;;;;;5077927;28;19938;-72
2022/04/14 13:37:29;;;;;;;;;;;17.50;99.90;;;;;;5078310;28;19913;-72
2022/04/14 13:39:54;;;;;;;;;;;17.30;99.90;;;;;;5073326;28;19978;-71
2022/04/14 13:42:20;;;;;;;;;;;17.20;99.90;;;;;;5074878;28;19958;-72
2022/04/14 13:44:45;;;;;;;;;;;17.30;99.90;;;;;;5075578;28;19939;-72
2022/04/14 13:47:11;;;;;;;;;;;17.40;99.90;;;;;;5075003;28;19931;-72
2022/04/14 13:49:37;;;;;;;;;;;17.40;99.90;;;;;;5057179;28;19920;-73
2022/04/14 13:52:03;;;;;;;;;;;17.20;99.90;;;;;;5075406;28;19917;-72
2022/04/14 13:54:29;;;;;;;;;;;17.10;99.90;;;;;;5075998;28;20011;-73
2022/04/14 13:56:55;;;;;;;;;;;17.00;99.90;;;;;;5076367;28;20046;-73
2022/04/14 13:59:21;;;;;;;;;;;17.10;99.90;;;;;;5075847;28;19938;-73
2022/04/14 14:01:46;;;;;;;;;;;17.00;99.90;;;;;;5056405;28;19936;-72
2022/04/14 14:04:13;;;;;;;;;;;16.90;99.90;;;;;;5075722;28;19916;-72
2022/04/14 14:06:39;;;;;;;;;;;17.00;99.90;;;;;;5074539;28;19958;-76
2022/04/14 14:09:04;;;;;;;;;;;16.90;99.90;;;;;;5057379;28;19948;-74
2022/04/14 14:11:31;;;;;;;;;;;17.20;99.90;;;;;;5074777;28;20298;-72
2022/04/14 14:13:57;;;;;;;;;;;17.20;99.90;;;;;;5075839;28;19931;-73
2022/04/14 14:16:23;;;;;;;;;;;17.10;99.90;;;;;;5075243;28;19917;-75
2022/04/14 14:18:49;;;;;;;;;;;17.20;99.90;;;;;;5075170;28;20295;-73
2022/04/14 14:21:15;;;;;;;;;;;17.30;99.90;;;;;;5075971;28;19919;-72